DGPHX EDDN-EDDN

Flight info

Callsign DGPHX
Flight time N/A
Altitude
Route
Aircraft PC12

Departure

Time 2026-05-06 13:19
Airport Nuremberg Airport (EDDN)

Arrival

Time N/A
Airport Nuremberg Airport (EDDN)
Time Latitude Longitude Altitude Speed Heading
2026-05-06 13:19 49.49944 11.07190 1345 ft 101 kts 288°
2026-05-06 13:19 49.50065 11.06111 1678 ft 105 kts 276°
2026-05-06 13:19 49.49998 11.04904 1773 ft 130 kts 242°
2026-05-06 13:20 49.49238 11.04027 1883 ft 144 kts 195°
2026-05-06 13:20 49.48253 11.04246 2106 ft 149 kts 149°
2026-05-06 13:20 49.47357 11.04902 2333 ft 126 kts 181°
2026-05-06 13:20 49.46521 11.04436 2591 ft 132 kts 213°
2026-05-06 13:21 49.45738 11.03642 2848 ft 137 kts 214°
2026-05-06 13:21 49.44914 11.02802 2979 ft 151 kts 214°
2026-05-06 13:21 49.43998 11.01864 2990 ft 165 kts 214°
2026-05-06 13:21 49.43016 11.00860 2986 ft 174 kts 214°
2026-05-06 13:22 49.42000 10.99821 2987 ft 177 kts 214°
2026-05-06 13:22 49.40982 10.98780 2989 ft 180 kts 214°
2026-05-06 13:22 49.39931 10.97706 2988 ft 183 kts 214°
2026-05-06 13:22 49.38872 10.96625 2983 ft 183 kts 214°
2026-05-06 13:23 49.37807 10.95538 2988 ft 184 kts 214°
2026-05-06 13:23 49.36738 10.94444 2990 ft 186 kts 214°
2026-05-06 13:23 49.35632 10.93429 2982 ft 187 kts 200°
2026-05-06 13:23 49.34357 10.93445 2994 ft 186 kts 160°
2026-05-06 13:24 49.33421 10.94704 3160 ft 180 kts 122°
2026-05-06 13:24 49.32776 10.96314 3328 ft 175 kts 128°
2026-05-06 13:24 49.31938 10.97632 3506 ft 172 kts 138°
2026-05-06 13:24 49.31046 10.98825 3676 ft 169 kts 140°
2026-05-06 13:25 49.30154 11.00006 3855 ft 170 kts 139°
2026-05-06 13:25 49.29264 11.01192 4027 ft 169 kts 139°
2026-05-06 13:25 49.28380 11.02377 4202 ft 168 kts 139°
2026-05-06 13:25 49.27500 11.03555 4369 ft 168 kts 139°
2026-05-06 13:26 49.26918 11.04334 4497 ft 169 kts 139°
2026-05-06 13:26 49.25665 11.05763 4727 ft 170 kts 145°
2026-05-06 13:26 49.24700 11.06803 4903 ft 169 kts 145°
2026-05-06 13:26 49.23731 11.07877 4975 ft 177 kts 144°
2026-05-06 13:27 49.22718 11.09009 4974 ft 183 kts 144°
2026-05-06 13:27 49.22017 11.09791 4974 ft 186 kts 144°
2026-05-06 13:27 49.20979 11.10952 4979 ft 189 kts 144°
2026-05-06 13:27 49.19916 11.12137 4977 ft 189 kts 144°
2026-05-06 13:28 49.18862 11.13355 4976 ft 190 kts 140°
2026-05-06 13:28 49.17887 11.14720 4976 ft 190 kts 137°
2026-05-06 13:28 49.16913 11.16094 4977 ft 190 kts 138°
2026-05-06 13:28 49.15926 11.17440 4980 ft 191 kts 139°
2026-05-06 13:29 49.14926 11.18789 4976 ft 192 kts 139°
2026-05-06 13:29 49.13927 11.20140 4978 ft 191 kts 139°
2026-05-06 13:29 49.12926 11.21495 4978 ft 192 kts 139°
2026-05-06 13:29 49.11936 11.22833 4976 ft 191 kts 139°
2026-05-06 13:30 49.10941 11.24179 4977 ft 191 kts 139°
2026-05-06 13:30 49.09944 11.25526 4977 ft 191 kts 139°
2026-05-06 13:30 49.08942 11.26875 4977 ft 191 kts 139°
2026-05-06 13:30 49.07945 11.28223 4979 ft 191 kts 139°
2026-05-06 13:31 49.06947 11.29570 4977 ft 192 kts 139°
2026-05-06 13:31 49.05948 11.30915 4977 ft 192 kts 139°
2026-05-06 13:31 49.04951 11.32258 4976 ft 191 kts 139°
2026-05-06 13:31 49.03957 11.33597 4976 ft 191 kts 139°
2026-05-06 13:32 49.02976 11.34916 4977 ft 190 kts 139°
2026-05-06 13:32 49.01984 11.36252 4976 ft 190 kts 139°
2026-05-06 13:32 49.00988 11.37590 4976 ft 191 kts 139°
2026-05-06 13:32 48.99993 11.38926 4979 ft 191 kts 139°
2026-05-06 13:33 48.98998 11.40262 4976 ft 191 kts 139°
2026-05-06 13:33 48.98002 11.41601 4980 ft 191 kts 139°
2026-05-06 13:33 48.96999 11.42943 4978 ft 192 kts 139°
2026-05-06 13:33 48.95992 11.44293 4979 ft 193 kts 139°
2026-05-06 13:34 48.94994 11.45631 4981 ft 192 kts 139°
2026-05-06 13:34 48.93991 11.46974 4976 ft 192 kts 139°
2026-05-06 13:34 48.92991 11.48312 4980 ft 191 kts 139°
2026-05-06 13:34 48.91990 11.49652 4980 ft 192 kts 139°
2026-05-06 13:35 48.90985 11.50993 4977 ft 192 kts 139°
2026-05-06 13:35 48.89983 11.52332 4977 ft 191 kts 139°
2026-05-06 13:35 48.88983 11.53668 4977 ft 191 kts 139°
2026-05-06 13:35 48.87984 11.55001 4980 ft 191 kts 139°
2026-05-06 13:36 48.86979 11.56339 4977 ft 193 kts 139°
2026-05-06 13:36 48.85988 11.57663 4977 ft 192 kts 139°
2026-05-06 13:36 48.84987 11.58996 4979 ft 192 kts 139°
2026-05-06 13:36 48.83983 11.60330 4979 ft 192 kts 139°
2026-05-06 13:37 48.82981 11.61666 4980 ft 192 kts 139°
2026-05-06 13:37 48.81979 11.62999 4980 ft 192 kts 139°
2026-05-06 13:37 48.80975 11.64333 4976 ft 192 kts 139°
2026-05-06 13:37 48.79973 11.65666 4979 ft 192 kts 139°
2026-05-06 13:38 48.78964 11.67002 4979 ft 192 kts 139°
2026-05-06 13:38 48.77960 11.68336 4980 ft 192 kts 139°
2026-05-06 13:38 48.76956 11.69670 4979 ft 192 kts 139°
2026-05-06 13:38 48.75961 11.70987 4979 ft 192 kts 139°
2026-05-06 13:39 48.74949 11.72326 4979 ft 192 kts 139°
2026-05-06 13:39 48.73943 11.73660 4977 ft 192 kts 139°
2026-05-06 13:39 48.72953 11.74970 4977 ft 191 kts 139°
2026-05-06 13:39 48.71952 11.76294 4977 ft 191 kts 139°
2026-05-06 13:40 48.70924 11.77564 4970 ft 191 kts 150°
2026-05-06 13:40 48.69643 11.77975 4939 ft 192 kts 179°
2026-05-06 13:40 48.68267 11.77948 4688 ft 202 kts 182°
2026-05-06 13:40 48.66846 11.77972 4435 ft 207 kts 177°
2026-05-06 13:41 48.65405 11.78119 4188 ft 209 kts 176°
2026-05-06 13:41 48.63952 11.78278 3939 ft 210 kts 176°
2026-05-06 13:41 48.62494 11.78439 3690 ft 210 kts 176°
2026-05-06 13:41 48.61037 11.78601 3438 ft 210 kts 176°
2026-05-06 13:42 48.59585 11.78763 3187 ft 209 kts 176°
2026-05-06 13:42 48.58137 11.78922 2936 ft 208 kts 176°
2026-05-06 13:42 48.56692 11.79083 2701 ft 207 kts 176°
2026-05-06 13:42 48.55310 11.79236 2679 ft 186 kts 176°
2026-05-06 13:43 48.54039 11.79382 2680 ft 184 kts 176°
2026-05-06 13:43 48.52761 11.79526 2679 ft 184 kts 176°
2026-05-06 13:43 48.51485 11.79672 2667 ft 185 kts 176°
2026-05-06 13:43 48.50185 11.79819 2563 ft 189 kts 176°
2026-05-06 13:44 48.47742 11.81073 2470 ft 190 kts 128°
2026-05-06 13:44 48.47348 11.82921 2470 ft 188 kts 88°
2026-05-06 13:44 48.47821 11.84716 2470 ft 187 kts 49°
2026-05-06 13:45 48.48934 11.85637 2470 ft 185 kts
2026-05-06 13:45 48.50932 11.83808 2469 ft 180 kts 288°
2026-05-06 13:45 48.50878 11.81959 2469 ft 181 kts 248°
2026-05-06 13:46 48.50063 11.80661 2468 ft 157 kts 205°
2026-05-06 13:46 48.49112 11.80435 2474 ft 130 kts 183°
2026-05-06 13:46 48.48245 11.80632 2474 ft 128 kts 147°
2026-05-06 13:46 48.47880 11.81727 2474 ft 117 kts 86°
2026-05-06 13:47 48.48228 11.82752 2472 ft 109 kts 43°
2026-05-06 13:47 48.48878 11.82954 2468 ft 95 kts 330°
2026-05-06 13:47 48.49412 11.82411 2488 ft 96 kts 326°
2026-05-06 13:47 48.49847 11.81623 2491 ft 106 kts 276°
2026-05-06 13:48 48.49514 11.80670 2487 ft 115 kts 209°
2026-05-06 13:48 48.48706 11.80513 2486 ft 122 kts 182°
2026-05-06 13:48 48.47845 11.80536 2489 ft 129 kts 174°
2026-05-06 13:48 48.46923 11.80696 2492 ft 136 kts 174°
2026-05-06 13:49 48.45959 11.80860 2487 ft 141 kts 174°
2026-05-06 13:49 48.44966 11.81032 2439 ft 148 kts 174°
2026-05-06 13:49 48.43917 11.81204 2345 ft 155 kts 175°
2026-05-06 13:49 48.42833 11.81360 2285 ft 156 kts 175°
2026-05-06 13:50 48.41769 11.81511 2290 ft 152 kts 175°
2026-05-06 13:50 48.40735 11.81659 2282 ft 150 kts 175°
2026-05-06 13:50 48.39719 11.81782 2268 ft 134 kts 184°
2026-05-06 13:50 48.39081 11.81159 2271 ft 103 kts 250°
2026-05-06 13:51 48.38999 11.80108 2295 ft 106 kts 262°
2026-05-06 13:51 48.38868 11.78958 2295 ft 122 kts 260°
2026-05-06 13:51 48.38706 11.77543 2287 ft 149 kts 260°
2026-05-06 13:51 48.38542 11.76091 2270 ft 124 kts 260°
2026-05-06 13:52 48.38583 11.74999 2272 ft 100 kts 307°
2026-05-06 13:52 48.39211 11.74757 2275 ft 102 kts 24°
2026-05-06 13:52 48.39519 11.75639 2276 ft 103 kts 102°
2026-05-06 13:52 48.39022 11.76314 2282 ft 103 kts 177°
2026-05-06 13:53 48.38462 11.75772 2283 ft 102 kts 253°
2026-05-06 13:53 48.38692 11.74923 2401 ft 91 kts 337°
2026-05-06 13:53 48.39282 11.75220 2484 ft 105 kts 49°
2026-05-06 13:53 48.39526 11.76311 2485 ft 124 kts 102°
2026-05-06 13:54 48.38982 11.77260 2466 ft 112 kts 164°
2026-05-06 13:54 48.38378 11.76972 2460 ft 88 kts 242°
2026-05-06 13:54 48.38459 11.76169 2482 ft 81 kts 295°
2026-05-06 13:54 48.38963 11.75850 2488 ft 93 kts 21°
2026-05-06 13:55 48.39256 11.76699 2483 ft 104 kts 101°
2026-05-06 13:55 48.38747 11.77425 2485 ft 109 kts 173°
2026-05-06 13:55 48.38184 11.76968 2474 ft 96 kts 251°
2026-05-06 13:55 48.38159 11.75786 2488 ft 131 kts 270°
2026-05-06 13:56 48.38164 11.74495 2471 ft 113 kts 270°
2026-05-06 13:56 48.38004 11.73409 2392 ft 122 kts 219°
2026-05-06 13:56 48.37120 11.73227 2505 ft 140 kts 172°
2026-05-06 13:56 48.36253 11.73982 2339 ft 169 kts 121°
2026-05-06 13:57 48.36219 11.75906 1791 ft 200 kts 80°
2026-05-06 13:57 48.36379 11.78025 1511 ft 202 kts 82°
2026-05-06 13:57 48.36536 11.80081 1480 ft 194 kts 82°
2026-05-06 13:57 48.36807 11.81548 2198 ft 131 kts 39°
2026-05-06 13:58 48.37546 11.82478 2188 ft 144 kts 33°
2026-05-06 13:58 48.38337 11.83358 2093 ft 150 kts 37°
2026-05-06 13:58 48.39171 11.84436 2089 ft 164 kts 36°
2026-05-06 13:58 48.40092 11.85541 2085 ft 173 kts 36°
2026-05-06 13:59 48.41052 11.86679 2085 ft 178 kts 36°
2026-05-06 13:59 48.42021 11.87824 2079 ft 180 kts 36°
2026-05-06 13:59 48.43011 11.88995 2075 ft 181 kts 36°
2026-05-06 13:59 48.44004 11.90173 2076 ft 182 kts 38°
2026-05-06 14:00 48.45001 11.91358 2075 ft 183 kts 37°
2026-05-06 14:00 48.46008 11.92534 2076 ft 183 kts 37°
2026-05-06 14:00 48.47018 11.93711 2076 ft 184 kts 37°
2026-05-06 14:00 48.47850 11.95018 1948 ft 157 kts 86°
2026-05-06 14:01 48.47250 11.95698 1736 ft 112 kts 200°
2026-05-06 14:01 48.46598 11.95164 1593 ft 104 kts 214°
2026-05-06 14:01 48.46061 11.94607 1425 ft 87 kts 217°
2026-05-06 14:01 48.45667 11.94150 1381 ft 37 kts 214°
2026-05-06 14:02 48.45628 11.94112 1382 ft 0 kts 209°
2026-05-06 14:05 48.45546 11.94019 1387 ft 16 kts 230°
2026-05-06 14:06 48.45533 11.94010 1384 ft 4 kts 50°
2026-05-06 14:06 48.45618 11.94102 1383 ft 44 kts 35°
2026-05-06 14:06 48.45993 11.94540 1440 ft 80 kts 38°
2026-05-06 14:06 48.46462 11.95040 1742 ft 88 kts 33°
2026-05-06 14:07 48.46978 11.95536 2055 ft 86 kts 27°
2026-05-06 14:07 48.47527 11.95781 2344 ft 98 kts 14°
2026-05-06 14:07 48.48064 11.96614 2370 ft 132 kts 59°
2026-05-06 14:07 48.48684 11.97845 2246 ft 161 kts 45°
2026-05-06 14:08 48.49477 11.98906 2663 ft 143 kts 44°
2026-05-06 14:08 48.50204 11.99959 2897 ft 147 kts 41°
2026-05-06 14:08 48.50590 12.01056 2462 ft 117 kts 124°
2026-05-06 14:08 48.50201 12.00634 1645 ft 102 kts 324°
2026-05-06 14:09 48.50621 12.01114 1557 ft 92 kts 76°
2026-05-06 14:09 48.50795 12.02079 1429 ft 97 kts 66°
2026-05-06 14:09 48.51039 12.02924 1317 ft 75 kts 63°
2026-05-06 14:09 48.51179 12.03394 1319 ft 43 kts 65°
2026-05-06 14:10 48.51268 12.03604 1322 ft 16 kts 19°
2026-05-06 14:10 48.51340 12.03677 1319 ft 1 kts 128°
2026-05-06 14:10 48.51339 12.03677 1319 ft 0 kts 130°